createdAt,value
2023-05-12T00:00:56.947Z,12.10
2023-05-12T00:03:24.422Z,12.10
2023-05-12T00:05:51.483Z,12.10
2023-05-12T00:08:18.183Z,12.00
2023-05-12T00:10:45.010Z,12.10
2023-05-12T00:13:11.857Z,12.10
2023-05-12T00:15:38.633Z,12.10
2023-05-12T00:18:05.281Z,12.10
2023-05-12T00:20:31.924Z,12.10
2023-05-12T00:22:58.502Z,12.10
2023-05-12T00:25:25.092Z,12.10
2023-05-12T00:27:51.655Z,12.00
2023-05-12T00:30:18.534Z,12.00
2023-05-12T00:32:45.494Z,12.00
2023-05-12T00:35:12.102Z,12.00
2023-05-12T00:37:38.670Z,11.90
2023-05-12T00:40:05.843Z,11.80
2023-05-12T00:42:34.761Z,11.80
2023-05-12T00:45:01.918Z,11.70
2023-05-12T00:47:28.985Z,11.60
2023-05-12T00:49:55.765Z,11.50
2023-05-12T00:52:22.458Z,11.40
2023-05-12T00:54:50.033Z,11.30
2023-05-12T00:57:16.959Z,11.20
2023-05-12T00:59:43.553Z,11.20
2023-05-12T01:02:10.263Z,11.00
2023-05-12T01:04:39.503Z,10.90
2023-05-12T01:07:25.216Z,10.90
2023-05-12T01:09:58.748Z,10.90
2023-05-12T01:12:26.622Z,10.90
2023-05-12T01:14:54.888Z,10.80
2023-05-12T01:17:32.596Z,10.80
2023-05-12T01:20:02.553Z,10.80
2023-05-12T01:22:33.539Z,10.70
2023-05-12T01:25:03.721Z,10.70
2023-05-12T01:27:31.368Z,10.70
2023-05-12T01:30:03.347Z,10.70
2023-05-12T01:32:30.528Z,10.60
2023-05-12T01:34:57.360Z,10.50
2023-05-12T01:37:26.575Z,10.50
2023-05-12T01:39:54.157Z,10.40
2023-05-12T01:42:20.801Z,10.30
2023-05-12T01:44:47.351Z,10.30
2023-05-12T01:47:15.680Z,10.30
2023-05-12T01:49:42.331Z,10.20
2023-05-12T01:52:08.965Z,10.20
2023-05-12T01:54:35.992Z,10.20
2023-05-12T01:57:02.655Z,10.10
2023-05-12T01:59:29.275Z,10.00
2023-05-12T02:01:55.944Z,10.00
2023-05-12T02:04:22.730Z,10.00
2023-05-12T02:06:49.326Z,10.00
2023-05-12T02:09:16.073Z,10.00
2023-05-12T02:11:42.641Z,9.90
2023-05-12T02:14:09.214Z,10.00
2023-05-12T02:16:35.881Z,9.90
2023-05-12T02:19:02.548Z,9.90
2023-05-12T02:21:29.123Z,9.90
2023-05-12T02:23:56.306Z,9.90
2023-05-12T02:26:22.971Z,9.90
2023-05-12T02:28:49.570Z,10.00
2023-05-12T02:31:16.170Z,10.00
2023-05-12T02:33:43.291Z,10.00
2023-05-12T02:36:09.918Z,10.00
2023-05-12T02:38:36.546Z,10.10
2023-05-12T02:41:03.095Z,10.20
2023-05-12T02:43:29.698Z,10.20
2023-05-12T02:45:56.349Z,10.30
2023-05-12T02:48:23.067Z,10.30
2023-05-12T02:50:49.685Z,10.30
2023-05-12T02:53:16.239Z,10.30
2023-05-12T02:55:42.859Z,10.30
2023-05-12T02:58:10.354Z,10.40
2023-05-12T03:00:36.923Z,10.40
2023-05-12T03:03:03.648Z,10.40
2023-05-12T03:05:30.632Z,10.40
2023-05-12T03:07:57.479Z,10.40
2023-05-12T03:10:24.078Z,10.50
2023-05-12T03:12:50.750Z,10.50
2023-05-12T03:15:17.408Z,10.50
2023-05-12T03:17:44.045Z,10.50
2023-05-12T03:20:11.032Z,10.50
2023-05-12T03:22:37.974Z,10.50
2023-05-12T03:25:05.275Z,10.60
2023-05-12T03:27:35.118Z,10.60
2023-05-12T03:30:02.137Z,10.60
2023-05-12T03:32:28.782Z,10.60
2023-05-12T03:34:55.401Z,10.60
2023-05-12T03:37:22.300Z,10.60
2023-05-12T03:39:49.417Z,10.70
2023-05-12T03:42:16.185Z,10.70
2023-05-12T03:44:43.678Z,10.70
2023-05-12T03:47:10.358Z,10.70
2023-05-12T03:49:37.262Z,10.80
2023-05-12T03:52:04.071Z,10.80
2023-05-12T03:54:30.798Z,10.80
2023-05-12T03:56:57.379Z,10.90
2023-05-12T03:59:24.003Z,10.90
2023-05-12T04:01:51.512Z,10.90
2023-05-12T04:04:18.086Z,10.90
2023-05-12T04:06:44.956Z,10.90
2023-05-12T04:09:11.572Z,11.00
2023-05-12T04:11:38.213Z,11.00
2023-05-12T04:14:04.781Z,11.00
2023-05-12T04:16:31.408Z,11.00
2023-05-12T04:18:58.077Z,11.00
2023-05-12T04:21:24.782Z,11.10
2023-05-12T04:23:55.190Z,11.10
2023-05-12T04:26:21.970Z,11.10
2023-05-12T04:28:48.651Z,11.20
2023-05-12T04:31:15.309Z,11.20
2023-05-12T04:33:41.880Z,11.20
2023-05-12T04:36:09.035Z,11.20
2023-05-12T04:38:35.759Z,11.20
2023-05-12T04:41:02.351Z,11.20
2023-05-12T04:46:00.236Z,11.30
2023-05-12T04:48:28.635Z,11.30
2023-05-12T04:50:55.426Z,11.40
2023-05-12T04:53:22.056Z,11.40
2023-05-12T04:55:49.968Z,11.40
2023-05-12T04:58:16.756Z,11.40
2023-05-12T05:00:43.878Z,11.50
2023-05-12T05:03:10.810Z,11.50
2023-05-12T05:05:37.600Z,11.50
2023-05-12T05:08:04.181Z,11.60
2023-05-12T05:10:30.831Z,11.60
2023-05-12T05:12:57.431Z,11.60
2023-05-12T05:15:24.040Z,11.60
2023-05-12T05:17:50.768Z,11.60
2023-05-12T05:20:17.717Z,11.70
2023-05-12T05:22:44.412Z,11.70
2023-05-12T05:25:11.382Z,11.80
2023-05-12T05:27:38.839Z,11.80
2023-05-12T05:30:08.773Z,11.90
2023-05-12T05:32:36.735Z,11.90
2023-05-12T05:35:03.671Z,12.00
2023-05-12T05:37:30.270Z,12.00
2023-05-12T05:39:57.246Z,12.10
2023-05-12T05:42:23.962Z,12.10
2023-05-12T05:44:50.506Z,12.20
2023-05-12T05:47:17.163Z,12.40
2023-05-12T05:49:44.050Z,12.50
2023-05-12T05:52:10.679Z,12.60
2023-05-12T05:54:37.264Z,12.70
2023-05-12T05:57:03.975Z,12.90
2023-05-12T05:59:30.540Z,13.00
2023-05-12T06:01:57.910Z,13.20
2023-05-12T06:04:24.673Z,13.40
2023-05-12T06:06:51.322Z,13.60
2023-05-12T06:09:17.924Z,13.80
2023-05-12T06:11:44.551Z,14.00
2023-05-12T06:14:11.657Z,14.20
2023-05-12T06:16:38.332Z,14.40
2023-05-12T06:19:05.165Z,14.60
2023-05-12T06:21:33.281Z,14.70
2023-05-12T06:23:59.835Z,14.90
2023-05-12T06:26:26.399Z,15.00
2023-05-12T06:28:53.020Z,15.10
2023-05-12T06:31:19.881Z,15.10
2023-05-12T06:33:46.516Z,15.10
2023-05-12T06:36:13.124Z,15.10
2023-05-12T06:38:39.690Z,15.20
2023-05-12T06:41:06.483Z,15.20
2023-05-12T06:43:33.286Z,15.30
2023-05-12T06:45:59.858Z,15.30
2023-05-12T06:48:26.832Z,15.40
2023-05-12T06:50:53.887Z,15.50
2023-05-12T06:53:20.821Z,15.50
2023-05-12T06:55:47.937Z,15.70
2023-05-12T06:58:14.543Z,15.80
2023-05-12T07:00:41.088Z,16.00
2023-05-12T07:03:09.926Z,16.20
2023-05-12T07:05:37.031Z,16.40
2023-05-12T07:08:03.872Z,16.60
2023-05-12T07:10:30.743Z,16.80
2023-05-12T07:12:57.572Z,16.80
2023-05-12T07:15:24.271Z,16.90
2023-05-12T07:17:51.223Z,16.90
2023-05-12T07:20:17.898Z,16.90
2023-05-12T07:22:44.466Z,16.90
2023-05-12T07:25:11.506Z,17.00
2023-05-12T07:27:38.196Z,17.20
2023-05-12T07:30:08.803Z,17.50
2023-05-12T07:32:35.501Z,17.80
2023-05-12T07:35:03.508Z,18.10
2023-05-12T07:37:30.478Z,18.50
2023-05-12T07:39:57.266Z,19.00
2023-05-12T07:42:24.183Z,19.40
2023-05-12T07:44:50.778Z,20.00
2023-05-12T07:47:17.444Z,21.40
2023-05-12T07:49:44.108Z,23.60
2023-05-12T07:52:10.703Z,24.30
2023-05-12T07:54:37.500Z,24.30
2023-05-12T07:57:04.305Z,25.00
2023-05-12T07:59:30.870Z,25.70
2023-05-12T08:01:57.532Z,27.00
2023-05-12T08:04:24.401Z,29.30
2023-05-12T08:06:51.015Z,31.30
2023-05-12T08:09:17.581Z,32.90
2023-05-12T08:11:47.120Z,34.50
2023-05-12T08:14:14.808Z,35.80
2023-05-12T08:16:42.503Z,36.80
2023-05-12T08:19:09.208Z,37.60
2023-05-12T08:21:35.876Z,37.60
2023-05-12T08:24:02.573Z,37.80
2023-05-12T08:26:34.798Z,38.30
2023-05-12T08:29:01.657Z,39.10
2023-05-12T08:31:28.521Z,39.30
2023-05-12T08:36:26.125Z,38.20
2023-05-12T08:38:52.712Z,37.10
2023-05-12T08:41:30.632Z,36.00
2023-05-12T08:43:57.662Z,35.30
2023-05-12T08:46:25.727Z,35.10
2023-05-12T08:48:55.338Z,35.10
2023-05-12T08:51:24.095Z,35.50
2023-05-12T08:53:53.184Z,36.40
2023-05-12T08:58:51.991Z,39.10
2023-05-12T09:01:18.660Z,38.60
2023-05-12T09:03:45.570Z,37.20
2023-05-12T09:06:13.191Z,35.70
2023-05-12T09:08:40.852Z,34.20
2023-05-12T09:11:11.279Z,32.60
2023-05-12T09:13:49.597Z,31.00
2023-05-12T09:16:22.253Z,29.40
2023-05-12T09:18:58.058Z,28.50
2023-05-12T09:21:26.274Z,28.30
2023-05-12T09:24:01.060Z,28.70
2023-05-12T09:26:28.665Z,29.60
2023-05-12T09:29:06.766Z,30.70
2023-05-12T09:31:33.688Z,31.30
2023-05-12T09:34:02.226Z,31.90
2023-05-12T09:36:28.808Z,32.70
2023-05-12T09:39:05.501Z,33.10
2023-05-12T09:41:38.695Z,32.80
2023-05-12T09:44:06.736Z,32.80
2023-05-12T09:46:33.892Z,33.20
2023-05-12T09:49:02.503Z,33.80
2023-05-12T09:51:30.650Z,33.90
2023-05-12T09:53:58.173Z,34.20
2023-05-12T09:56:27.940Z,34.70
2023-05-12T09:58:56.961Z,35.00
2023-05-12T10:01:24.752Z,35.10
2023-05-12T10:03:53.191Z,35.50
2023-05-12T10:06:22.912Z,35.90
2023-05-12T10:09:03.350Z,36.10
2023-05-12T10:11:30.224Z,36.70
2023-05-12T10:13:58.849Z,37.90
2023-05-12T10:16:28.513Z,38.50
2023-05-12T10:18:56.386Z,38.80
2023-05-12T10:21:25.964Z,39.50
2023-05-12T10:23:56.850Z,39.80
2023-05-12T10:26:23.775Z,39.60
2023-05-12T10:28:52.075Z,39.80
2023-05-12T10:31:19.685Z,40.30
2023-05-12T10:34:00.265Z,40.00
2023-05-12T10:36:27.465Z,39.90
2023-05-12T10:38:54.776Z,40.50
2023-05-12T10:41:34.929Z,41.00
2023-05-12T10:44:01.688Z,41.40
2023-05-12T10:46:28.464Z,41.60
2023-05-12T10:48:58.164Z,41.90
2023-05-12T10:51:28.207Z,42.30
2023-05-12T10:54:02.401Z,42.10
2023-05-12T10:56:39.349Z,42.00
2023-05-12T10:59:15.053Z,41.90
2023-05-12T11:01:44.514Z,41.30
2023-05-12T11:04:13.459Z,40.60
2023-05-12T11:06:41.288Z,40.70
2023-05-12T11:09:09.046Z,41.10
2023-05-12T11:11:36.376Z,40.80
2023-05-12T11:14:03.244Z,40.60
2023-05-12T11:16:29.937Z,40.80
2023-05-12T11:19:06.714Z,40.70
2023-05-12T11:21:33.552Z,40.60
2023-05-12T11:24:03.413Z,40.80
2023-05-12T11:26:30.486Z,40.90
2023-05-12T11:28:58.244Z,40.00
2023-05-12T11:31:25.056Z,39.20
2023-05-12T11:34:11.900Z,38.40
2023-05-12T11:36:42.327Z,37.60
2023-05-12T11:39:22.923Z,37.10
2023-05-12T11:41:54.598Z,37.80
2023-05-12T11:44:26.316Z,38.30
2023-05-12T11:47:11.713Z,38.70
2023-05-12T11:49:53.158Z,38.50
2023-05-12T11:52:22.236Z,38.50
2023-05-12T11:54:50.722Z,38.10
2023-05-12T11:57:33.904Z,38.30
2023-05-12T12:00:09.603Z,38.60
2023-05-12T12:02:37.362Z,38.50
2023-05-12T12:05:05.449Z,38.90
2023-05-12T12:07:36.391Z,38.60
2023-05-12T12:10:13.384Z,38.20
2023-05-12T12:12:44.252Z,37.80
2023-05-12T12:15:11.911Z,37.00
2023-05-12T12:17:39.604Z,35.90
2023-05-12T12:20:07.765Z,35.10
2023-05-12T12:22:35.124Z,34.40
2023-05-12T12:25:02.830Z,34.40
2023-05-12T12:27:29.508Z,35.10
2023-05-12T12:29:56.147Z,35.00
2023-05-12T12:32:22.819Z,33.70
2023-05-12T12:34:49.601Z,32.70
2023-05-12T12:37:17.010Z,32.10
2023-05-12T12:39:43.645Z,32.60
2023-05-12T12:42:10.238Z,33.50
2023-05-12T12:44:36.843Z,33.80
2023-05-12T12:47:04.194Z,33.60
2023-05-12T12:49:30.926Z,33.10
2023-05-12T12:51:57.619Z,32.30
2023-05-12T12:54:26.928Z,31.40
2023-05-12T12:56:53.672Z,30.30
2023-05-12T12:59:20.221Z,29.40
2023-05-12T13:01:46.875Z,28.60
2023-05-12T13:04:13.455Z,28.00
2023-05-12T13:06:40.047Z,27.30
2023-05-12T13:09:06.657Z,26.80
2023-05-12T13:11:33.744Z,26.40
2023-05-12T13:14:02.181Z,26.10
2023-05-12T13:16:29.950Z,25.90
2023-05-12T13:18:56.662Z,25.80
2023-05-12T13:21:23.317Z,25.90
2023-05-12T13:23:49.919Z,26.10
2023-05-12T13:26:16.519Z,26.20
2023-05-12T13:28:43.109Z,26.30
2023-05-12T13:31:10.151Z,26.50
2023-05-12T13:33:36.727Z,26.80
2023-05-12T13:36:03.458Z,27.30
2023-05-12T13:38:30.779Z,27.60
2023-05-12T13:40:57.388Z,27.80
2023-05-12T13:43:23.957Z,27.70
2023-05-12T13:45:50.909Z,27.50
2023-05-12T13:48:17.613Z,27.10
2023-05-12T13:50:44.206Z,26.80
2023-05-12T13:53:12.481Z,26.80
2023-05-12T13:55:40.750Z,26.80
2023-05-12T13:58:07.709Z,26.70
2023-05-12T14:00:34.281Z,26.90
2023-05-12T14:03:01.565Z,26.70
2023-05-12T14:05:28.790Z,26.50
2023-05-12T14:07:55.593Z,26.50
2023-05-12T14:10:22.419Z,26.40
2023-05-12T14:12:49.271Z,26.30
2023-05-12T14:15:26.596Z,26.30
2023-05-12T14:17:55.947Z,26.30
2023-05-12T14:20:22.578Z,26.40
2023-05-12T14:22:49.295Z,26.70
2023-05-12T14:25:16.191Z,27.10
2023-05-12T14:27:42.897Z,27.40
2023-05-12T14:30:10.521Z,27.50
2023-05-12T14:32:37.144Z,27.50
2023-05-12T14:35:04.123Z,27.60
2023-05-12T14:37:31.381Z,27.60
2023-05-12T14:39:57.950Z,27.30
2023-05-12T14:42:26.282Z,27.00
2023-05-12T14:44:52.832Z,26.40
2023-05-12T14:47:19.398Z,25.80
2023-05-12T14:49:46.224Z,25.40
2023-05-12T14:52:12.815Z,24.90
2023-05-12T14:54:39.430Z,24.50
2023-05-12T14:57:06.184Z,24.20
2023-05-12T14:59:32.940Z,23.90
2023-05-12T15:02:00.044Z,23.70
2023-05-12T15:04:27.451Z,23.50
2023-05-12T15:06:54.065Z,23.40
2023-05-12T15:09:20.628Z,23.20
2023-05-12T15:11:48.017Z,23.10
2023-05-12T15:14:14.668Z,23.10
2023-05-12T15:16:41.795Z,23.20
2023-05-12T15:19:08.617Z,23.30
2023-05-12T15:21:36.788Z,23.60
2023-05-12T15:24:03.807Z,23.80
2023-05-12T15:26:34.140Z,24.00
2023-05-12T15:29:01.900Z,24.20
2023-05-12T15:31:29.423Z,24.30
2023-05-12T15:33:57.125Z,24.40
2023-05-12T15:36:23.728Z,24.50
2023-05-12T15:38:50.524Z,24.50
2023-05-12T15:41:17.138Z,24.60
2023-05-12T15:43:43.707Z,24.60
2023-05-12T15:46:11.694Z,24.50
2023-05-12T15:48:39.187Z,24.40
2023-05-12T15:51:06.735Z,24.20
2023-05-12T15:53:33.805Z,23.90
2023-05-12T15:56:04.643Z,23.70
2023-05-12T15:58:31.587Z,23.50
2023-05-12T16:00:58.833Z,23.30
2023-05-12T16:03:25.534Z,23.20
2023-05-12T16:05:52.499Z,23.00
2023-05-12T16:08:19.275Z,22.80
2023-05-12T16:10:45.885Z,22.70
2023-05-12T16:13:13.579Z,22.60
2023-05-12T16:15:40.215Z,22.70
2023-05-12T16:18:09.899Z,22.80
2023-05-12T16:20:37.615Z,23.00
2023-05-12T16:23:04.586Z,23.10
2023-05-12T16:25:31.183Z,23.10
2023-05-12T16:27:57.827Z,23.20
2023-05-12T16:30:24.929Z,23.10
2023-05-12T16:32:51.563Z,23.00
2023-05-12T16:35:18.330Z,22.90
2023-05-12T16:37:45.037Z,22.80
2023-05-12T16:40:12.058Z,22.70
2023-05-12T16:42:38.668Z,22.60
2023-05-12T16:45:06.312Z,22.50
2023-05-12T16:47:32.927Z,22.40
2023-05-12T16:49:59.860Z,22.40
2023-05-12T16:52:26.896Z,22.20
2023-05-12T16:54:55.962Z,22.20
2023-05-12T16:57:23.113Z,22.00
2023-05-12T16:59:49.919Z,22.00
2023-05-12T17:02:16.824Z,21.90
2023-05-12T17:04:43.511Z,21.90
2023-05-12T17:07:10.268Z,21.70
2023-05-12T17:09:37.092Z,21.70
2023-05-12T17:12:04.583Z,21.60
2023-05-12T17:14:31.488Z,21.50
2023-05-12T17:16:58.167Z,21.50
2023-05-12T17:19:24.844Z,21.30
2023-05-12T17:21:51.894Z,21.30
2023-05-12T17:24:18.553Z,21.20
2023-05-12T17:26:45.156Z,21.10
2023-05-12T17:29:12.148Z,21.10
2023-05-12T17:31:38.865Z,21.00
2023-05-12T17:34:05.803Z,20.90
2023-05-12T17:36:32.960Z,20.80
2023-05-12T17:39:00.031Z,20.80
2023-05-12T17:41:28.985Z,20.70
2023-05-12T17:43:56.450Z,20.60
2023-05-12T17:46:24.116Z,20.50
2023-05-12T17:48:50.912Z,20.40
2023-05-12T17:51:17.507Z,20.30
2023-05-12T17:53:44.213Z,20.20
2023-05-12T17:56:11.396Z,20.10
2023-05-12T17:58:38.053Z,20.00
2023-05-12T18:01:04.663Z,19.90
2023-05-12T18:03:31.322Z,19.80
2023-05-12T18:05:57.917Z,19.70
2023-05-12T18:08:24.544Z,19.60
2023-05-12T18:10:51.125Z,19.50
2023-05-12T18:13:17.740Z,19.40
2023-05-12T18:15:44.462Z,19.20
2023-05-12T18:18:11.370Z,19.10
2023-05-12T18:20:38.189Z,19.00
2023-05-12T18:23:04.836Z,18.80
2023-05-12T18:25:31.424Z,18.70
2023-05-12T18:27:58.083Z,18.60
2023-05-12T18:30:24.692Z,18.50
2023-05-12T18:32:51.391Z,18.40
2023-05-12T18:35:18.285Z,18.30
2023-05-12T18:37:45.054Z,18.10
2023-05-12T18:40:12.162Z,18.00
2023-05-12T18:42:38.841Z,17.90
2023-05-12T18:45:06.114Z,17.80
2023-05-12T18:47:33.355Z,17.70
2023-05-12T18:50:00.376Z,17.50
2023-05-12T18:52:27.006Z,17.40
2023-05-12T18:54:53.612Z,17.30
2023-05-12T18:57:20.856Z,17.20
2023-05-12T18:59:47.442Z,17.00
2023-05-12T19:02:14.017Z,16.90
2023-05-12T19:04:40.745Z,16.70
2023-05-12T19:07:09.449Z,16.60
2023-05-12T19:09:37.133Z,16.50
2023-05-12T19:12:05.722Z,16.40
2023-05-12T19:14:32.487Z,16.20
2023-05-12T19:16:59.032Z,16.10
2023-05-12T19:19:25.629Z,16.00
2023-05-12T19:21:52.848Z,15.90
2023-05-12T19:24:19.523Z,15.80
2023-05-12T19:26:46.168Z,15.70
2023-05-12T19:29:12.720Z,15.50
2023-05-12T19:31:39.378Z,15.50
2023-05-12T19:34:06.941Z,15.30
2023-05-12T19:36:33.726Z,15.20
2023-05-12T19:39:00.447Z,15.10
2023-05-12T19:41:28.251Z,15.00
2023-05-12T19:43:56.002Z,15.00
2023-05-12T19:46:22.985Z,14.90
2023-05-12T19:48:51.024Z,14.80
2023-05-12T19:51:17.670Z,14.70
2023-05-12T19:53:44.348Z,14.60
2023-05-12T19:56:11.067Z,14.60
2023-05-12T19:58:38.192Z,14.50
2023-05-12T20:01:04.951Z,14.40
2023-05-12T20:03:31.744Z,14.40
2023-05-12T20:05:58.749Z,14.30
2023-05-12T20:08:25.394Z,14.20
2023-05-12T20:10:52.243Z,14.20
2023-05-12T20:13:18.823Z,14.10
2023-05-12T20:15:45.485Z,14.00
2023-05-12T20:18:14.295Z,14.00
2023-05-12T20:20:42.276Z,13.90
2023-05-12T20:23:09.007Z,13.90
2023-05-12T20:25:36.215Z,13.80
2023-05-12T20:28:03.332Z,13.70
2023-05-12T20:30:30.329Z,13.70
2023-05-12T20:32:56.971Z,13.60
2023-05-12T20:35:23.855Z,13.60
2023-05-12T20:37:50.864Z,13.60
2023-05-12T20:40:17.597Z,13.50
2023-05-12T20:42:46.209Z,13.50
2023-05-12T20:45:13.774Z,13.50
2023-05-12T20:47:40.610Z,13.50
2023-05-12T20:50:08.638Z,13.50
2023-05-12T20:52:40.469Z,13.40
2023-05-12T20:55:08.125Z,13.40
2023-05-12T20:57:34.939Z,13.50
2023-05-12T21:00:01.637Z,13.50
2023-05-12T21:02:29.017Z,13.50
2023-05-12T21:04:56.188Z,13.60
2023-05-12T21:07:22.859Z,13.60
2023-05-12T21:09:49.712Z,13.70
2023-05-12T21:12:16.296Z,13.70
2023-05-12T21:14:44.903Z,13.70
2023-05-12T21:17:12.229Z,13.70
2023-05-12T21:19:39.865Z,13.80
2023-05-12T21:22:07.429Z,13.70
2023-05-12T21:24:34.069Z,13.70
2023-05-12T21:27:04.667Z,13.70
2023-05-12T21:29:32.357Z,13.60
2023-05-12T21:31:59.209Z,13.60
2023-05-12T21:34:26.150Z,13.60
2023-05-12T21:36:52.862Z,13.60
2023-05-12T21:39:19.413Z,13.50
2023-05-12T21:41:45.990Z,13.50
2023-05-12T21:44:12.637Z,13.50
2023-05-12T21:46:39.228Z,13.40
2023-05-12T21:49:06.050Z,13.30
2023-05-12T21:51:35.599Z,13.30
2023-05-12T21:54:02.186Z,13.20
2023-05-12T21:56:28.742Z,13.20
2023-05-12T21:58:55.692Z,13.10
2023-05-12T22:01:22.437Z,13.10
2023-05-12T22:03:49.556Z,13.00
2023-05-12T22:06:16.385Z,12.90
2023-05-12T22:08:43.262Z,12.90
2023-05-12T22:11:09.974Z,12.70
2023-05-12T22:13:36.703Z,12.60
2023-05-12T22:16:03.798Z,12.60
2023-05-12T22:18:30.533Z,12.50
2023-05-12T22:20:57.128Z,12.50
2023-05-12T22:23:23.946Z,12.40
2023-05-12T22:25:50.659Z,12.40
2023-05-12T22:28:18.128Z,12.40
2023-05-12T22:30:44.779Z,12.40
2023-05-12T22:33:11.405Z,12.40
2023-05-12T22:35:38.077Z,12.40
2023-05-12T22:38:04.711Z,12.40
2023-05-12T22:40:32.694Z,12.40
2023-05-12T22:42:59.260Z,12.40
2023-05-12T22:45:25.902Z,12.40
2023-05-12T22:47:52.663Z,12.40
2023-05-12T22:50:19.884Z,12.30
2023-05-12T22:52:46.727Z,12.30
2023-05-12T22:55:13.333Z,12.20
2023-05-12T22:57:40.810Z,12.20
2023-05-12T23:00:08.040Z,12.10
2023-05-12T23:02:35.200Z,12.10
2023-05-12T23:05:02.433Z,12.00
2023-05-12T23:07:29.145Z,11.90
2023-05-12T23:09:55.999Z,11.90
2023-05-12T23:12:22.570Z,11.90
2023-05-12T23:14:49.258Z,11.90
2023-05-12T23:17:15.839Z,11.90
2023-05-12T23:19:42.403Z,11.90
2023-05-12T23:22:08.979Z,11.80
2023-05-12T23:24:36.091Z,11.80
2023-05-12T23:27:02.690Z,11.80
2023-05-12T23:29:29.762Z,11.80
2023-05-12T23:31:58.602Z,11.80
2023-05-12T23:34:25.495Z,11.80
2023-05-12T23:36:52.066Z,11.80
2023-05-12T23:39:18.623Z,11.70
2023-05-12T23:41:45.506Z,11.70
2023-05-12T23:44:12.626Z,11.70
2023-05-12T23:46:39.420Z,11.60
2023-05-12T23:49:06.280Z,11.60
2023-05-12T23:51:33.155Z,11.60
2023-05-12T23:53:59.771Z,11.50
2023-05-12T23:56:26.483Z,11.50
2023-05-12T23:58:53.037Z,11.50
